Time;durP1;ratioP1;P1;durP2;ratioP2;P2;SDS_P1;SDS_P2;PMS_P1;PMS_P2;Temp;Humidity;BMP_temperature;BMP_pressure;BME280_temperature;BME280_humidity;BME280_pressure;Samples;Min_cycle;Max_cycle;Signal;HPM_P1;HPM_P2
2022/03/23 00:01:35;;;;;;;24.57;14.73;;;;;;;;;;5054030;28;20545;-64
2022/03/23 00:04:01;;;;;;;27.97;16.37;;;;;;;;;;5036025;28;20181;-64
2022/03/23 00:06:27;;;;;;;22.63;15.30;;;;;;;;;;5035910;28;20560;-64
2022/03/23 00:08:53;;;;;;;23.73;15.33;;;;;;;;;;5053763;28;20273;-64
2022/03/23 00:11:20;;;;;;;24.03;14.97;;;;;;;;;;5053903;28;20260;-65
2022/03/23 00:13:46;;;;;;;24.50;15.83;;;;;;;;;;5036223;28;20183;-65
2022/03/23 00:16:12;;;;;;;21.93;15.47;;;;;;;;;;5035744;28;20198;-64
2022/03/23 00:18:38;;;;;;;23.50;15.23;;;;;;;;;;5035836;28;20217;-64
2022/03/23 00:21:04;;;;;;;35.17;15.53;;;;;;;;;;5053662;28;20266;-64
2022/03/23 00:23:30;;;;;;;25.50;16.13;;;;;;;;;;5053631;28;20182;-63
2022/03/23 00:25:58;;;;;;;25.07;15.87;;;;;;;;;;5035778;28;20189;-63
2022/03/23 00:28:24;;;;;;;22.50;15.80;;;;;;;;;;5053339;28;20574;-64
2022/03/23 00:30:50;;;;;;;22.77;15.30;;;;;;;;;;5054366;28;20205;-65
2022/03/23 00:33:16;;;;;;;22.00;15.93;;;;;;;;;;5035159;28;20555;-63
2022/03/23 00:35:43;;;;;;;23.77;16.83;;;;;;;;;;5035615;28;20580;-65
2022/03/23 00:38:09;;;;;;;23.67;16.90;;;;;;;;;;5053543;28;20216;-65
2022/03/23 00:40:36;;;;;;;24.20;16.70;;;;;;;;;;5053365;28;20175;-66
2022/03/23 00:43:02;;;;;;;25.13;18.40;;;;;;;;;;5053409;28;20177;-64
2022/03/23 00:45:29;;;;;;;27.90;17.67;;;;;;;;;;5053423;28;20186;-64
2022/03/23 00:47:55;;;;;;;25.30;16.63;;;;;;;;;;5035323;28;20209;-65
2022/03/23 00:50:21;;;;;;;23.77;15.80;;;;;;;;;;5053487;28;20555;-65
2022/03/23 00:52:47;;;;;;;24.97;16.50;;;;;;;;;;5053588;28;20265;-65
2022/03/23 00:55:14;;;;;;;24.10;17.53;;;;;;;;;;5053354;28;20699;-64
2022/03/23 00:57:41;;;;;;;21.77;16.47;;;;;;;;;;5053761;28;20666;-66
2022/03/23 01:00:12;;;;;;;30.63;20.90;;;;;;;;;;5053279;28;20662;-65
2022/03/23 01:02:38;;;;;;;31.87;22.43;;;;;;;;;;5035299;28;20253;-64
2022/03/23 01:05:04;;;;;;;26.70;18.53;;;;;;;;;;5053233;28;20643;-64
2022/03/23 01:07:30;;;;;;;23.70;16.67;;;;;;;;;;5035252;28;20243;-64
2022/03/23 01:09:56;;;;;;;30.43;18.60;;;;;;;;;;5052947;28;20650;-65
2022/03/23 01:12:22;;;;;;;27.77;19.17;;;;;;;;;;5053620;28;20579;-65
2022/03/23 01:14:48;;;;;;;30.73;21.93;;;;;;;;;;5035194;28;20205;-65
2022/03/23 01:17:14;;;;;;;30.03;20.43;;;;;;;;;;5035003;28;20674;-64
2022/03/23 01:19:40;;;;;;;31.60;21.47;;;;;;;;;;5035100;28;20186;-63
2022/03/23 01:22:06;;;;;;;29.43;20.07;;;;;;;;;;5052980;28;20544;-65
2022/03/23 01:24:33;;;;;;;28.67;21.13;;;;;;;;;;5053491;28;20175;-65
2022/03/23 01:27:00;;;;;;;29.83;19.03;;;;;;;;;;5052814;28;20182;-64
2022/03/23 01:29:26;;;;;;;27.83;17.47;;;;;;;;;;5052856;28;20669;-67
2022/03/23 01:31:52;;;;;;;28.27;16.90;;;;;;;;;;5035093;28;20193;-65
2022/03/23 01:34:18;;;;;;;26.67;16.27;;;;;;;;;;5053026;28;20261;-66
2022/03/23 01:36:44;;;;;;;23.63;16.20;;;;;;;;;;5034871;28;20206;-65
2022/03/23 01:39:11;;;;;;;23.33;16.93;;;;;;;;;;5034784;28;20221;-65
2022/03/23 01:41:38;;;;;;;25.60;17.17;;;;;;;;;;5052824;28;20170;-65
2022/03/23 01:44:14;;;;;;;31.47;19.10;;;;;;;;;;5052869;28;20171;-66
2022/03/23 01:46:59;;;;;;;27.20;17.87;;;;;;;;;;5056561;28;20205;-66
2022/03/23 01:49:25;;;;;;;29.33;18.50;;;;;;;;;;5056479;28;20174;-65
2022/03/23 01:51:51;;;;;;;25.40;16.80;;;;;;;;;;5056533;28;20231;-65
2022/03/23 01:54:17;;;;;;;26.10;18.43;;;;;;;;;;5056608;28;20646;-65
2022/03/23 01:56:44;;;;;;;27.03;18.87;;;;;;;;;;5038354;28;20295;-67
2022/03/23 01:59:10;;;;;;;27.17;18.83;;;;;;;;;;5056321;28;20213;-64
2022/03/23 02:01:38;;;;;;;28.17;18.43;;;;;;;;;;5038420;28;20321;-65
2022/03/23 02:04:04;;;;;;;23.00;16.90;;;;;;;;;;5056374;28;20179;-66
2022/03/23 02:06:30;;;;;;;23.17;16.53;;;;;;;;;;5038262;28;20182;-64
2022/03/23 02:08:56;;;;;;;27.63;17.07;;;;;;;;;;5056143;28;20205;-67
2022/03/23 02:11:22;;;;;;;24.17;16.20;;;;;;;;;;5056155;28;20182;-65
2022/03/23 02:13:48;;;;;;;23.40;17.10;;;;;;;;;;5056221;28;20186;-65
2022/03/23 02:16:14;;;;;;;24.90;15.60;;;;;;;;;;5038031;28;20248;-65
2022/03/23 02:18:40;;;;;;;24.13;16.73;;;;;;;;;;5055671;28;20205;-65
2022/03/23 02:21:06;;;;;;;24.03;16.77;;;;;;;;;;5055782;28;20254;-65
2022/03/23 02:23:32;;;;;;;25.17;17.33;;;;;;;;;;5055719;28;20257;-66
2022/03/23 02:26:01;;;;;;;22.67;17.20;;;;;;;;;;5055997;28;20708;-62
2022/03/23 02:28:27;;;;;;;27.13;18.13;;;;;;;;;;5055579;28;20198;-64
2022/03/23 02:30:56;;;;;;;27.20;16.77;;;;;;;;;;5055693;28;20257;-63
2022/03/23 02:33:22;;;;;;;25.30;17.83;;;;;;;;;;5037692;28;20236;-64
2022/03/23 02:35:48;;;;;;;22.27;18.07;;;;;;;;;;5055685;28;20199;-65
2022/03/23 02:38:16;;;;;;;26.00;18.07;;;;;;;;;;5055446;28;20225;-65
2022/03/23 02:40:42;;;;;;;23.97;17.57;;;;;;;;;;5055517;28;20170;-64
2022/03/23 02:43:08;;;;;;;22.40;17.87;;;;;;;;;;5056041;28;20174;-64
2022/03/23 02:45:35;;;;;;;30.23;17.60;;;;;;;;;;5055829;28;20254;-62
2022/03/23 02:48:03;;;;;;;22.33;17.03;;;;;;;;;;5037868;28;20199;-64
2022/03/23 02:50:29;;;;;;;28.33;18.70;;;;;;;;;;5055845;28;20316;-65
2022/03/23 03:04:10;;;;;;;27.20;18.23;;;;;;;;;;5055504;28;20178;-65
2022/03/23 03:06:36;;;;;;;26.93;18.50;;;;;;;;;;5055056;28;20650;-65
2022/03/23 03:09:02;;;;;;;27.77;19.27;;;;;;;;;;5054943;28;20212;-64
2022/03/23 03:11:28;;;;;;;27.03;19.57;;;;;;;;;;5055272;28;20681;-66
2022/03/23 03:13:54;;;;;;;28.77;19.47;;;;;;;;;;5036993;28;20261;-64
2022/03/23 03:16:20;;;;;;;24.07;18.13;;;;;;;;;;5037083;28;20198;-64
2022/03/23 03:18:46;;;;;;;27.70;18.43;;;;;;;;;;5036894;28;20203;-65
2022/03/23 03:21:13;;;;;;;26.90;17.60;;;;;;;;;;5037132;28;20256;-66
2022/03/23 03:23:41;;;;;;;27.33;18.20;;;;;;;;;;5055095;28;20170;-65
2022/03/23 03:26:07;;;;;;;29.47;18.77;;;;;;;;;;5037244;28;20256;-65
2022/03/23 03:28:34;;;;;;;31.43;21.70;;;;;;;;;;5055135;28;20202;-63
2022/03/23 03:31:01;;;;;;;40.67;25.47;;;;;;;;;;5037301;28;20190;-64
2022/03/23 03:33:27;;;;;;;28.03;19.27;;;;;;;;;;5055320;28;20182;-64
2022/03/23 03:35:53;;;;;;;34.93;25.70;;;;;;;;;;5055232;28;20202;-65
2022/03/23 03:38:19;;;;;;;42.53;28.63;;;;;;;;;;5052378;22;20229;-62
2022/03/23 03:40:45;;;;;;;35.70;24.57;;;;;;;;;;5056805;28;20189;-63
2022/03/23 03:43:12;;;;;;;28.43;19.77;;;;;;;;;;5038698;28;20220;-63
2022/03/23 03:45:37;;;;;;;24.70;18.97;;;;;;;;;;5037431;28;20454;-62
2022/03/23 03:48:03;;;;;;;29.05;19.33;;;;;;;;;;5037874;28;20385;-62
2022/03/23 03:50:29;;;;;;;27.05;20.45;;;;;;;;;;5037214;28;20400;-62
2022/03/23 03:52:55;;;;;;;23.73;18.48;;;;;;;;;;5055288;28;20374;-62
2022/03/23 03:55:21;;;;;;;26.60;20.90;;;;;;;;;;5055081;28;20378;-62
2022/03/23 03:57:47;;;;;;;28.48;22.08;;;;;;;;;;5054795;28;20421;-62
2022/03/23 04:00:15;;;;;;;28.08;21.63;;;;;;;;;;5037475;28;20382;-62
2022/03/23 04:02:41;;;;;;;27.33;20.90;;;;;;;;;;5055059;28;20447;-62
2022/03/23 04:05:07;;;;;;;30.02;20.70;;;;;;;;;;5054860;28;20408;-62
2022/03/23 04:07:33;;;;;;;29.15;19.73;;;;;;;;;;5036187;28;20401;-61
2022/03/23 04:10:00;;;;;;;28.58;18.75;;;;;;;;;;5036917;28;20480;-62
2022/03/23 04:12:26;;;;;;;25.70;20.40;;;;;;;;;;5055652;28;20388;-62
2022/03/23 04:14:52;;;;;;;24.70;19.63;;;;;;;;;;5055327;28;20726;-62
2022/03/23 04:17:18;;;;;;;24.03;18.80;;;;;;;;;;5036954;28;20437;-63
2022/03/23 04:19:44;;;;;;;25.83;18.20;;;;;;;;;;5055307;28;20378;-62
2022/03/23 04:22:10;;;;;;;23.93;19.03;;;;;;;;;;5054759;28;20857;-61
2022/03/23 04:24:36;;;;;;;24.00;18.70;;;;;;;;;;5054803;28;20452;-62
2022/03/23 04:27:02;;;;;;;22.80;17.80;;;;;;;;;;5037061;28;20473;-62
2022/03/23 04:29:28;;;;;;;22.65;18.10;;;;;;;;;;5054811;28;20401;-62
2022/03/23 04:31:54;;;;;;;26.97;19.23;;;;;;;;;;5037043;28;20413;-63
2022/03/23 04:34:20;;;;;;;22.27;17.63;;;;;;;;;;5054265;28;20381;-62
2022/03/23 04:36:46;;;;;;;24.67;18.33;;;;;;;;;;5036739;28;20432;-62
2022/03/23 04:39:12;;;;;;;24.20;18.50;;;;;;;;;;5036561;28;20397;-62
2022/03/23 04:41:38;;;;;;;26.17;19.23;;;;;;;;;;5054330;28;20515;-62
2022/03/23 04:44:04;;;;;;;25.05;18.73;;;;;;;;;;5054436;28;20396;-63
2022/03/23 04:46:30;;;;;;;22.40;18.03;;;;;;;;;;5036735;28;20894;-62
2022/03/23 04:48:56;;;;;;;25.13;18.70;;;;;;;;;;5054363;28;20435;-62
2022/03/23 04:51:21;;;;;;;24.42;18.75;;;;;;;;;;5036436;28;20389;-62
2022/03/23 04:53:47;;;;;;;26.23;19.13;;;;;;;;;;5054442;28;20802;-62
2022/03/23 04:56:13;;;;;;;24.08;18.75;;;;;;;;;;5036527;28;20479;-64
2022/03/23 04:58:42;;;;;;;25.35;18.50;;;;;;;;;;5054696;28;20791;-62
2022/03/23 05:01:08;;;;;;;24.13;17.65;;;;;;;;;;5054615;28;20366;-64
2022/03/23 05:03:34;;;;;;;21.73;17.50;;;;;;;;;;5036617;28;20434;-62
2022/03/23 05:06:00;;;;;;;23.45;18.15;;;;;;;;;;5053912;28;20381;-62
2022/03/23 05:08:26;;;;;;;24.38;18.50;;;;;;;;;;5054019;28;20389;-62
2022/03/23 05:10:52;;;;;;;25.13;18.48;;;;;;;;;;5054380;28;20427;-62
2022/03/23 05:13:19;;;;;;;22.88;18.38;;;;;;;;;;5054106;28;20873;-62
2022/03/23 05:15:45;;;;;;;23.85;19.05;;;;;;;;;;5053760;28;20890;-64
2022/03/23 05:18:11;;;;;;;27.20;18.75;;;;;;;;;;5054064;28;20373;-63
2022/03/23 05:20:37;;;;;;;24.55;18.60;;;;;;;;;;5057924;28;20370;-62
2022/03/23 05:23:03;;;;;;;23.75;18.27;;;;;;;;;;5039791;28;20392;-63
2022/03/23 05:25:30;;;;;;;25.20;19.37;;;;;;;;;;5058192;28;20420;-63
2022/03/23 05:27:56;;;;;;;25.10;19.05;;;;;;;;;;5040012;28;20382;-62
2022/03/23 05:30:22;;;;;;;24.33;19.35;;;;;;;;;;5056487;28;20381;-62
2022/03/23 05:32:48;;;;;;;27.58;19.33;;;;;;;;;;5039505;28;20388;-62
2022/03/23 05:35:14;;;;;;;27.67;19.80;;;;;;;;;;5040184;28;20378;-61
2022/03/23 05:37:40;;;;;;;30.38;19.55;;;;;;;;;;5057983;28;20959;-62
2022/03/23 05:40:06;;;;;;;28.10;19.92;;;;;;;;;;5057482;28;20433;-61
2022/03/23 05:42:33;;;;;;;27.58;19.55;;;;;;;;;;5057925;28;20386;-62
2022/03/23 05:44:59;;;;;;;26.80;19.23;;;;;;;;;;5039814;28;20420;-62
2022/03/23 05:47:25;;;;;;;30.42;19.75;;;;;;;;;;5057327;28;20382;-62
2022/03/23 05:49:51;;;;;;;26.48;19.80;;;;;;;;;;5057709;28;20395;-62
2022/03/23 05:52:17;;;;;;;25.10;19.38;;;;;;;;;;5058123;28;20389;-61
2022/03/23 05:54:43;;;;;;;24.02;18.98;;;;;;;;;;5057926;28;20377;-63
2022/03/23 05:57:09;;;;;;;28.40;20.30;;;;;;;;;;5057131;28;20404;-62
2022/03/23 05:59:35;;;;;;;26.70;20.67;;;;;;;;;;5057323;28;20370;-62
2022/03/23 06:02:01;;;;;;;28.00;20.60;;;;;;;;;;5057277;28;20500;-62
2022/03/23 06:04:28;;;;;;;27.13;19.77;;;;;;;;;;5057196;28;20375;-63
2022/03/23 06:06:54;;;;;;;27.75;20.83;;;;;;;;;;5057049;28;20492;-62
2022/03/23 06:09:20;;;;;;;29.70;20.23;;;;;;;;;;5038922;28;20392;-62
2022/03/23 06:11:47;;;;;;;31.38;21.77;;;;;;;;;;5057146;28;20382;-63
2022/03/23 06:14:13;;;;;;;30.35;20.80;;;;;;;;;;5057096;28;20389;-63
2022/03/23 06:16:39;;;;;;;31.00;21.17;;;;;;;;;;5039064;28;20491;-63
2022/03/23 06:19:05;;;;;;;27.20;20.35;;;;;;;;;;5056973;28;20398;-64
2022/03/23 06:21:31;;;;;;;26.73;20.67;;;;;;;;;;5039124;28;20410;-63
2022/03/23 06:23:57;;;;;;;27.42;19.88;;;;;;;;;;5056760;28;20373;-63
2022/03/23 06:26:23;;;;;;;29.30;19.52;;;;;;;;;;5038996;28;20393;-63
2022/03/23 06:28:49;;;;;;;25.70;20.60;;;;;;;;;;5038719;28;20889;-63
2022/03/23 06:31:15;;;;;;;28.23;19.38;;;;;;;;;;5056041;28;20889;-63
2022/03/23 06:33:41;;;;;;;28.63;19.75;;;;;;;;;;5056500;28;20388;-63
2022/03/23 06:36:07;;;;;;;27.38;19.27;;;;;;;;;;5038290;28;20506;-63
2022/03/23 06:38:33;;;;;;;25.90;17.77;;;;;;;;;;5057974;28;20206;-63
2022/03/23 06:40:59;;;;;;;24.73;16.87;;;;;;;;;;5039466;28;20186;-64
2022/03/23 06:43:26;;;;;;;25.23;17.17;;;;;;;;;;5057765;28;20201;-64
2022/03/23 06:45:52;;;;;;;26.20;16.63;;;;;;;;;;5057763;28;20170;-65
2022/03/23 06:48:18;;;;;;;30.70;16.30;;;;;;;;;;5057508;28;20198;-64
2022/03/23 06:50:45;;;;;;;26.33;16.23;;;;;;;;;;5039427;28;20186;-65
2022/03/23 06:53:11;;;;;;;25.77;17.43;;;;;;;;;;5057812;28;20183;-64
2022/03/23 06:55:38;;;;;;;25.67;17.13;;;;;;;;;;5057793;28;20281;-64
2022/03/23 06:58:04;;;;;;;30.03;17.23;;;;;;;;;;5039267;28;20202;-64
2022/03/23 07:00:31;;;;;;;25.40;16.10;;;;;;;;;;5057144;28;20221;-64
2022/03/23 07:02:57;;;;;;;25.43;15.40;;;;;;;;;;5039390;28;20189;-64
2022/03/23 07:05:23;;;;;;;25.33;16.73;;;;;;;;;;5057364;28;20178;-64
2022/03/23 07:10:37;;;;;;;32.97;20.67;;;;;;;;;;5057608;28;20166;-63
2022/03/23 07:13:04;;;;;;;26.57;19.20;;;;;;;;;;5040704;28;20250;-63
2022/03/23 07:15:30;;;;;;;28.67;17.20;;;;;;;;;;5040478;28;20213;-63
2022/03/23 07:17:56;;;;;;;22.93;17.03;;;;;;;;;;5040726;28;20635;-63
2022/03/23 07:20:22;;;;;;;22.80;15.40;;;;;;;;;;5057887;28;20206;-63
2022/03/23 07:22:48;;;;;;;24.53;15.27;;;;;;;;;;5058453;28;20257;-63
2022/03/23 07:25:14;;;;;;;18.00;13.90;;;;;;;;;;5039146;28;20194;-63
2022/03/23 07:27:41;;;;;;;108.87;55.07;;;;;;;;;;5057065;28;20182;-64
2022/03/23 07:30:07;;;;;;;38.83;23.17;;;;;;;;;;5056487;28;20580;-63
2022/03/23 07:32:33;;;;;;;40.47;23.43;;;;;;;;;;5039891;28;20183;-63
2022/03/23 07:34:59;;;;;;;30.30;18.37;;;;;;;;;;5057428;28;20175;-63
2022/03/23 07:37:25;;;;;;;56.40;28.37;;;;;;;;;;5039485;28;20685;-63
2022/03/23 07:39:51;;;;;;;36.93;23.43;;;;;;;;;;5039845;28;20218;-63
2022/03/23 07:42:17;;;;;;;44.63;28.00;;;;;;;;;;5041037;28;20556;-63
2022/03/23 07:44:43;;;;;;;25.50;18.27;;;;;;;;;;5063388;28;20174;-63
2022/03/23 07:47:10;;;;;;;29.60;21.93;;;;;;;;;;5064735;28;20178;-63
2022/03/23 07:49:36;;;;;;;26.33;16.17;;;;;;;;;;5046447;28;20198;-65
2022/03/23 07:52:03;;;;;;;27.87;16.80;;;;;;;;;;5042543;28;20579;-65
2022/03/23 07:54:29;;;;;;;21.33;15.77;;;;;;;;;;5041330;28;20304;-63
2022/03/23 07:56:55;;;;;;;21.37;16.27;;;;;;;;;;5057784;28;20274;-63
2022/03/23 07:59:21;;;;;;;22.27;15.50;;;;;;;;;;5039289;28;20299;-64
2022/03/23 08:01:47;;;;;;;21.63;15.43;;;;;;;;;;5056969;28;20218;-64
2022/03/23 08:04:13;;;;;;;21.27;16.30;;;;;;;;;;5038574;28;20179;-63
2022/03/23 08:06:39;;;;;;;19.37;15.77;;;;;;;;;;5039638;28;20186;-64
2022/03/23 08:09:05;;;;;;;23.67;16.00;;;;;;;;;;5038819;28;20198;-64
2022/03/23 08:11:31;;;;;;;21.30;14.73;;;;;;;;;;5056276;28;20187;-63
2022/03/23 08:13:57;;;;;;;21.07;14.90;;;;;;;;;;5056208;28;20288;-64
2022/03/23 08:16:24;;;;;;;23.40;14.50;;;;;;;;;;5037909;28;20202;-63
2022/03/23 08:18:52;;;;;;;18.67;14.10;;;;;;;;;;5054994;28;20251;-63
2022/03/23 08:21:19;;;;;;;18.73;14.00;;;;;;;;;;5055020;28;20622;-63
2022/03/23 08:23:45;;;;;;;21.07;16.73;;;;;;;;;;5055231;28;20182;-63
2022/03/23 08:26:13;;;;;;;23.50;15.03;;;;;;;;;;5055003;28;20183;-63
2022/03/23 08:28:40;;;;;;;24.90;15.07;;;;;;;;;;5037134;28;20230;-63
2022/03/23 08:31:06;;;;;;;20.70;14.60;;;;;;;;;;5054756;28;20179;-63
2022/03/23 08:33:35;;;;;;;20.77;14.23;;;;;;;;;;5054937;28;20228;-63
2022/03/23 08:36:02;;;;;;;24.77;14.47;;;;;;;;;;5054625;28;20202;-62
2022/03/23 08:38:28;;;;;;;23.00;15.00;;;;;;;;;;5054748;28;20212;-63
2022/03/23 08:40:54;;;;;;;37.57;14.53;;;;;;;;;;5055330;28;20167;-63
2022/03/23 08:43:20;;;;;;;18.83;13.57;;;;;;;;;;5054440;28;20268;-63
2022/03/23 08:45:47;;;;;;;23.90;15.30;;;;;;;;;;5054783;28;20193;-62
2022/03/23 08:48:13;;;;;;;22.40;15.17;;;;;;;;;;5036480;28;20685;-63
2022/03/23 08:50:40;;;;;;;26.43;16.40;;;;;;;;;;5036600;28;20187;-63
2022/03/23 08:53:06;;;;;;;24.73;14.90;;;;;;;;;;5036010;28;20652;-63
2022/03/23 08:55:33;;;;;;;23.57;15.73;;;;;;;;;;5054158;28;20213;-63
2022/03/23 08:57:59;;;;;;;23.77;14.37;;;;;;;;;;5036165;28;20232;-63
2022/03/23 09:00:26;;;;;;;28.17;15.37;;;;;;;;;;5054432;28;20296;-63
2022/03/23 09:02:52;;;;;;;24.33;16.20;;;;;;;;;;5036470;28;20248;-63
2022/03/23 09:05:19;;;;;;;23.73;16.63;;;;;;;;;;5036442;28;20189;-63
2022/03/23 09:07:45;;;;;;;29.43;16.60;;;;;;;;;;5054109;28;20174;-63
2022/03/23 09:10:13;;;;;;;30.57;16.97;;;;;;;;;;5054418;28;20182;-63
2022/03/23 09:12:39;;;;;;;27.17;17.63;;;;;;;;;;5036485;28;20186;-63
2022/03/23 09:15:08;;;;;;;30.53;17.43;;;;;;;;;;5036299;28;20182;-63
2022/03/23 09:17:34;;;;;;;28.50;18.17;;;;;;;;;;5053781;28;20194;-63
2022/03/23 09:20:01;;;;;;;29.40;16.43;;;;;;;;;;5054379;28;20205;-63
2022/03/23 09:22:34;;;;;;;31.83;17.80;;;;;;;;;;5036712;28;20179;-63
2022/03/23 09:25:00;;;;;;;29.80;18.90;;;;;;;;;;5054455;28;20163;-64
2022/03/23 09:27:26;;;;;;;31.67;19.60;;;;;;;;;;5054323;28;20258;-63
2022/03/23 09:29:52;;;;;;;27.73;18.63;;;;;;;;;;5053633;28;20690;-64
2022/03/23 09:32:18;;;;;;;29.10;18.93;;;;;;;;;;5035448;28;20669;-64
2022/03/23 09:34:45;;;;;;;31.53;20.47;;;;;;;;;;5053203;28;20182;-64
2022/03/23 09:39:56;;;;;;;32.63;20.23;;;;;;;;;;5053567;28;20228;-64
2022/03/23 09:42:24;;;;;;;32.87;20.70;;;;;;;;;;5035458;28;20235;-64
2022/03/23 09:44:52;;;;;;;29.43;20.53;;;;;;;;;;5035468;28;20181;-63
2022/03/23 09:47:18;;;;;;;35.80;20.13;;;;;;;;;;5053377;28;20639;-63
2022/03/23 09:49:44;;;;;;;34.80;20.20;;;;;;;;;;5078413;22;21222;-64
2022/03/23 09:52:10;;;;;;;32.63;20.57;;;;;;;;;;5035174;28;20646;-64
2022/03/23 09:54:36;;;;;;;31.90;20.20;;;;;;;;;;5034829;28;20236;-64
2022/03/23 09:57:03;;;;;;;30.30;19.50;;;;;;;;;;5052419;28;20238;-64
2022/03/23 09:59:29;;;;;;;30.30;19.30;;;;;;;;;;5052689;28;20174;-64
2022/03/23 10:02:01;;;;;;;28.47;19.87;;;;;;;;;;5052553;28;20512;-63
2022/03/23 10:04:51;;;;;;;31.20;19.93;;;;;;;;;;5034687;28;20182;-64
2022/03/23 10:07:37;;;;;;;33.37;21.33;;;;;;;;;;5027554;28;20669;-64
2022/03/23 10:10:22;;;;;;;30.97;20.33;;;;;;;;;;5038328;28;20283;-64
2022/03/23 10:13:06;;;;;;;30.17;20.47;;;;;;;;;;5055947;28;20656;-64
2022/03/23 10:15:51;;;;;;;31.10;19.53;;;;;;;;;;5037992;28;20178;-64
2022/03/23 10:18:35;;;;;;;28.47;20.07;;;;;;;;;;5055830;28;20181;-64
2022/03/23 10:21:02;;;;;;;33.00;20.17;;;;;;;;;;5055865;28;20226;-64
2022/03/23 10:23:29;;;;;;;29.57;21.63;;;;;;;;;;5056089;28;20174;-64
2022/03/23 10:25:55;;;;;;;33.40;20.50;;;;;;;;;;5055619;28;20171;-64
2022/03/23 10:28:21;;;;;;;31.40;20.63;;;;;;;;;;5056478;28;20544;-65
2022/03/23 10:30:47;;;;;;;34.67;20.83;;;;;;;;;;5037932;28;20199;-64
2022/03/23 10:33:23;;;;;;;31.23;20.67;;;;;;;;;;5037841;28;20186;-64
2022/03/23 10:35:50;;;;;;;31.37;19.47;;;;;;;;;;5055468;28;20289;-64
2022/03/23 10:38:18;;;;;;;34.23;20.63;;;;;;;;;;5056101;28;20179;-64
2022/03/23 10:40:44;;;;;;;39.53;21.00;;;;;;;;;;5037602;28;20205;-64
2022/03/23 10:43:11;;;;;;;28.03;20.50;;;;;;;;;;5037718;28;20213;-64
2022/03/23 10:45:38;;;;;;;37.27;20.93;;;;;;;;;;5037710;28;20210;-63
2022/03/23 10:48:08;;;;;;;29.50;20.13;;;;;;;;;;5055667;28;20599;-65
2022/03/23 10:50:34;;;;;;;32.77;20.33;;;;;;;;;;5055248;28;20216;-63
2022/03/23 10:53:01;;;;;;;34.03;22.10;;;;;;;;;;5055348;28;20174;-63
2022/03/23 10:55:28;;;;;;;34.10;20.77;;;;;;;;;;5055116;28;20177;-63
2022/03/23 10:58:00;;;;;;;29.03;19.00;;;;;;;;;;5055249;28;20220;-63
2022/03/23 11:00:30;;;;;;;27.97;19.27;;;;;;;;;;5055084;28;20194;-63
2022/03/23 11:02:57;;;;;;;34.37;19.67;;;;;;;;;;5055638;28;20263;-63
2022/03/23 11:05:32;;;;;;;38.57;21.13;;;;;;;;;;5037049;28;20639;-63
2022/03/23 11:08:08;;;;;;;29.73;21.63;;;;;;;;;;5055339;28;20174;-63
2022/03/23 11:16:12;;;;;;;26.63;18.67;;;;;;;;;;5054861;28;20344;-63
2022/03/23 11:18:38;;;;;;;27.30;18.47;;;;;;;;;;5055164;28;20178;-64
2022/03/23 11:21:04;;;;;;;31.40;20.97;;;;;;;;;;5054971;28;20195;-64
2022/03/23 11:23:31;;;;;;;27.93;20.37;;;;;;;;;;5036972;28;20269;-62
2022/03/23 11:26:02;;;;;;;24.23;17.87;;;;;;;;;;5054696;28;20664;-64
2022/03/23 11:28:28;;;;;;;28.43;19.70;;;;;;;;;;5055206;28;20163;-63
2022/03/23 11:30:56;;;;;;;32.50;20.93;;;;;;;;;;5054624;28;20202;-63
2022/03/23 11:33:23;;;;;;;27.93;20.63;;;;;;;;;;5054689;28;20261;-64
2022/03/23 11:35:50;;;;;;;28.17;20.17;;;;;;;;;;5054710;28;20197;-63
2022/03/23 11:38:24;;;;;;;33.47;20.67;;;;;;;;;;5055530;28;20175;-64
2022/03/23 11:40:52;;;;;;;29.80;20.10;;;;;;;;;;5054622;28;20197;-64
2022/03/23 11:43:19;;;;;;;31.63;20.27;;;;;;;;;;5036627;28;20317;-65
2022/03/23 11:45:47;;;;;;;32.30;20.60;;;;;;;;;;5054405;28;20181;-64
2022/03/23 11:48:13;;;;;;;29.13;19.53;;;;;;;;;;5054107;28;20174;-64
2022/03/23 11:50:47;;;;;;;34.83;19.90;;;;;;;;;;5053986;28;20581;-65
2022/03/23 11:53:19;;;;;;;28.43;19.80;;;;;;;;;;5054638;28;20170;-64
2022/03/23 11:55:53;;;;;;;26.37;20.43;;;;;;;;;;5037142;28;20186;-65
2022/03/23 11:58:22;;;;;;;24.33;17.37;;;;;;;;;;5036347;28;20257;-64
2022/03/23 12:01:06;;;;;;;30.07;20.43;;;;;;;;;;5036226;28;20194;-64
2022/03/23 12:03:41;;;;;;;24.00;18.07;;;;;;;;;;5054514;28;20163;-64
2022/03/23 12:06:11;;;;;;;28.27;20.80;;;;;;;;;;5036125;28;20185;-64
2022/03/23 12:08:45;;;;;;;26.43;19.87;;;;;;;;;;5053931;28;20174;-65
2022/03/23 12:11:30;;;;;;;27.47;19.90;;;;;;;;;;5035941;28;20252;-64
2022/03/23 12:13:56;;;;;;;30.13;20.70;;;;;;;;;;5036164;28;20237;-65
2022/03/23 12:16:42;;;;;;;29.77;21.53;;;;;;;;;;5035669;28;20214;-65
2022/03/23 12:19:10;;;;;;;31.87;21.73;;;;;;;;;;5053900;28;20201;-64
2022/03/23 12:21:44;;;;;;;30.43;22.77;;;;;;;;;;5053828;28;20190;-65
2022/03/23 12:24:39;;;;;;;27.63;21.13;;;;;;;;;;5053851;28;20241;-64
2022/03/23 12:27:14;;;;;;;30.77;21.50;;;;;;;;;;5019158;28;20291;-65
2022/03/23 12:29:40;;;;;;;29.53;21.40;;;;;;;;;;5052955;28;20251;-65
2022/03/23 12:32:08;;;;;;;38.57;23.97;;;;;;;;;;5035602;28;20646;-64
2022/03/23 12:34:38;;;;;;;33.43;23.27;;;;;;;;;;5053278;28;20229;-64
2022/03/23 12:37:08;;;;;;;29.37;21.50;;;;;;;;;;5053435;28;20194;-63
2022/03/23 12:39:44;;;;;;;36.20;23.17;;;;;;;;;;5053160;28;20596;-64
2022/03/23 12:42:13;;;;;;;30.80;21.90;;;;;;;;;;5053770;28;20593;-64
2022/03/23 12:44:39;;;;;;;29.13;20.87;;;;;;;;;;5053924;28;20250;-64
2022/03/23 12:47:11;;;;;;;26.77;20.33;;;;;;;;;;5035354;28;20182;-64
2022/03/23 12:58:02;;;;;;;21.00;17.33;;;;;;;;;;5053248;28;20166;-64
2022/03/23 13:00:29;;;;;;;23.70;17.70;;;;;;;;;;5053202;28;20191;-64
2022/03/23 13:03:07;;;;;;;21.70;16.00;;;;;;;;;;5053579;28;20232;-64
2022/03/23 13:05:34;;;;;;;21.47;16.20;;;;;;;;;;5035181;28;20653;-65
2022/03/23 13:08:00;;;;;;;21.37;16.27;;;;;;;;;;5053162;28;20185;-65
2022/03/23 13:10:26;;;;;;;20.10;16.10;;;;;;;;;;5035244;28;20226;-65
2022/03/23 13:13:05;;;;;;;23.00;17.50;;;;;;;;;;5053219;28;20183;-65
2022/03/23 13:15:31;;;;;;;21.80;15.93;;;;;;;;;;5053374;28;20190;-65
2022/03/23 13:17:57;;;;;;;18.77;15.47;;;;;;;;;;5053165;28;20247;-65
2022/03/23 13:20:26;;;;;;;21.93;16.20;;;;;;;;;;5035010;28;20692;-65
2022/03/23 13:22:53;;;;;;;20.67;16.10;;;;;;;;;;5053269;28;20190;-65
2022/03/23 13:25:19;;;;;;;19.27;15.63;;;;;;;;;;5053178;28;20638;-65
2022/03/23 13:27:47;;;;;;;20.87;15.90;;;;;;;;;;5035136;28;20182;-65
2022/03/23 13:30:14;;;;;;;21.73;15.67;;;;;;;;;;5052858;28;20190;-65
2022/03/23 13:32:41;;;;;;;21.47;16.37;;;;;;;;;;5035138;28;20175;-65
2022/03/23 13:35:13;;;;;;;19.47;15.67;;;;;;;;;;5052845;28;20206;-65
2022/03/23 13:37:55;;;;;;;21.97;16.77;;;;;;;;;;5053218;28;20666;-65
2022/03/23 13:40:24;;;;;;;21.57;16.33;;;;;;;;;;5035228;28;20202;-64
2022/03/23 13:45:38;;;;;;;22.97;16.60;;;;;;;;;;5056945;28;20265;-66
2022/03/23 13:48:10;;;;;;;22.60;17.03;;;;;;;;;;5038922;28;20179;-66
2022/03/23 13:50:43;;;;;;;22.87;16.63;;;;;;;;;;5038509;28;20211;-65
2022/03/23 13:53:09;;;;;;;26.77;18.97;;;;;;;;;;5056577;28;20190;-65
2022/03/23 13:55:35;;;;;;;30.00;24.07;;;;;;;;;;5056374;28;20669;-65
2022/03/23 13:58:01;;;;;;;21.83;16.57;;;;;;;;;;5056307;28;20175;-65
2022/03/23 14:00:28;;;;;;;24.43;17.30;;;;;;;;;;5038521;28;20623;-65
2022/03/23 14:02:55;;;;;;;24.13;17.23;;;;;;;;;;5056366;28;20210;-65
2022/03/23 14:05:21;;;;;;;27.03;17.30;;;;;;;;;;5056398;28;20179;-65
2022/03/23 14:07:47;;;;;;;29.03;20.63;;;;;;;;;;5056321;28;20186;-65
2022/03/23 14:10:13;;;;;;;24.45;18.92;;;;;;;;;;5037695;28;20428;-65
2022/03/23 14:12:39;;;;;;;25.83;18.43;;;;;;;;;;5056185;28;20202;-65
2022/03/23 14:15:05;;;;;;;24.90;17.40;;;;;;;;;;5038248;28;20193;-65
2022/03/23 14:17:35;;;;;;;22.13;17.50;;;;;;;;;;5056022;28;20212;-65
2022/03/23 14:20:04;;;;;;;24.85;19.60;;;;;;;;;;5054898;28;20850;-65
2022/03/23 14:22:30;;;;;;;;;;;;;;;;;;5056864;28;20087;-65
2022/03/23 14:24:59;;;;;;;;;;;;;;;;;;5056551;28;20364;-65
2022/03/23 14:27:27;;;;;;;22.40;17.63;;;;;;;;;;5038016;28;20181;-70
2022/03/23 14:29:52;;;;;;;;;;;;;;;;;;5056178;28;20396;-67
2022/03/23 14:32:18;;;;;;;;;;;;;;;;;;5056505;28;19904;-66
2022/03/23 14:34:44;;;;;;;;;;;;;;;;;;5056294;28;19904;-65
2022/03/23 14:37:13;;;;;;;23.17;19.87;;;;;;;;;;5054776;28;20406;-65
2022/03/23 14:39:43;;;;;;;23.73;19.23;;;;;;;;;;5055554;28;20618;-65
2022/03/23 14:42:11;;;;;;;26.10;20.37;;;;;;;;;;5055586;28;20178;-65
2022/03/23 14:44:37;;;;;;;26.57;20.00;;;;;;;;;;5055477;28;20167;-65
2022/03/23 14:47:07;;;;;;;22.57;18.70;;;;;;;;;;5055834;28;20250;-65
2022/03/23 14:49:37;;;;;;;24.17;19.60;;;;;;;;;;5055241;28;20167;-66
2022/03/23 14:52:05;;;;;;;27.40;19.93;;;;;;;;;;5037282;28;20666;-65
2022/03/23 14:54:31;;;;;;;27.53;20.17;;;;;;;;;;5055702;28;20186;-65